createdAt,value
2018-03-18T00:00:16.213Z,17.40
2018-03-18T00:01:16.193Z,17.50
2018-03-18T00:02:16.146Z,17.00
2018-03-18T00:03:16.126Z,18.50
2018-03-18T00:04:16.327Z,17.60
2018-03-18T00:05:16.306Z,17.20
2018-03-18T00:06:16.093Z,18.00
2018-03-18T00:07:16.092Z,17.90
2018-03-18T00:08:16.283Z,17.60
2018-03-18T00:09:16.060Z,16.80
2018-03-18T00:10:16.083Z,16.70
2018-03-18T00:11:16.042Z,17.90
2018-03-18T00:12:16.084Z,17.50
2018-03-18T00:13:16.097Z,16.80
2018-03-18T00:14:16.234Z,17.20
2018-03-18T00:15:16.007Z,18.10
2018-03-18T00:16:16.026Z,18.00
2018-03-18T00:17:16.018Z,16.10
2018-03-18T00:18:16.231Z,17.20
2018-03-18T00:19:16.041Z,18.10
2018-03-18T00:20:16.013Z,18.40
2018-03-18T00:21:15.963Z,18.10
2018-03-18T00:22:15.947Z,18.10
2018-03-18T00:23:15.924Z,18.10
2018-03-18T00:24:15.912Z,18.60
2018-03-18T00:25:15.918Z,19.70
2018-03-18T00:26:15.912Z,20.20
2018-03-18T00:27:15.892Z,19.20
2018-03-18T00:28:15.910Z,17.80
2018-03-18T00:29:15.864Z,19.80
2018-03-18T00:30:16.103Z,18.00
2018-03-18T00:31:15.843Z,18.60
2018-03-18T00:32:15.855Z,17.50
2018-03-18T00:33:16.029Z,18.60
2018-03-18T00:34:15.813Z,18.60
2018-03-18T00:35:16.009Z,18.30
2018-03-18T00:36:15.997Z,18.30
2018-03-18T00:37:15.780Z,17.80
2018-03-18T00:38:15.795Z,18.70
2018-03-18T00:39:15.783Z,18.00
2018-03-18T00:40:15.757Z,18.80
2018-03-18T00:41:15.751Z,18.40
2018-03-18T00:42:15.735Z,19.10
2018-03-18T00:43:15.731Z,19.00
2018-03-18T00:44:15.722Z,20.10
2018-03-18T00:45:15.710Z,19.20
2018-03-18T00:46:15.706Z,18.60
2018-03-18T00:47:15.880Z,18.70
2018-03-18T00:48:15.881Z,19.70
2018-03-18T00:49:15.655Z,17.80
2018-03-18T00:50:15.854Z,18.60
2018-03-18T00:51:15.644Z,18.40
2018-03-18T00:52:15.622Z,19.70
2018-03-18T00:53:15.622Z,19.30
2018-03-18T00:54:15.813Z,19.00
2018-03-18T00:55:15.603Z,18.60
2018-03-18T00:56:15.626Z,20.00
2018-03-18T00:57:15.787Z,18.50
2018-03-18T00:58:15.775Z,19.80
2018-03-18T00:59:15.595Z,19.40
2018-03-18T01:00:15.769Z,20.50
2018-03-18T01:01:15.536Z,19.50
2018-03-18T01:02:15.573Z,19.50
2018-03-18T01:03:15.519Z,18.60
2018-03-18T01:04:15.506Z,18.80
2018-03-18T01:05:15.530Z,18.20
2018-03-18T01:06:15.793Z,19.10
2018-03-18T01:07:15.466Z,20.50
2018-03-18T01:08:15.483Z,19.50
2018-03-18T01:09:15.445Z,19.40
2018-03-18T01:10:15.443Z,19.50
2018-03-18T01:11:15.435Z,19.30
2018-03-18T01:12:15.424Z,18.90
2018-03-18T01:13:15.420Z,19.60
2018-03-18T01:14:15.395Z,19.80
2018-03-18T01:15:15.399Z,19.70
2018-03-18T01:16:15.382Z,19.30
2018-03-18T01:17:15.376Z,19.10
2018-03-18T01:18:15.355Z,20.70
2018-03-18T01:19:15.355Z,19.90
2018-03-18T01:20:15.344Z,19.60
2018-03-18T01:21:15.334Z,19.40
2018-03-18T01:22:15.314Z,20.20
2018-03-18T01:23:15.299Z,19.70
2018-03-18T01:24:15.290Z,20.10
2018-03-18T01:25:15.280Z,20.40
2018-03-18T01:26:15.477Z,19.80
2018-03-18T01:27:15.282Z,19.50
2018-03-18T01:28:15.277Z,18.70
2018-03-18T01:29:15.439Z,19.80
2018-03-18T01:30:15.339Z,18.80
2018-03-18T01:31:15.464Z,20.10
2018-03-18T01:32:15.216Z,20.60
2018-03-18T01:33:15.399Z,19.70
2018-03-18T01:34:15.201Z,19.90
2018-03-18T01:35:15.182Z,20.30
2018-03-18T01:36:15.372Z,18.40
2018-03-18T01:37:15.164Z,19.00
2018-03-18T01:38:15.146Z,20.30
2018-03-18T01:39:15.160Z,19.90
2018-03-18T01:40:15.351Z,20.30
2018-03-18T01:41:15.115Z,21.20
2018-03-18T01:42:15.108Z,19.70
2018-03-18T01:43:15.313Z,18.90
2018-03-18T01:44:15.087Z,19.90
2018-03-18T01:45:15.085Z,20.00
2018-03-18T01:46:15.285Z,20.00
2018-03-18T01:47:15.094Z,19.90
2018-03-18T01:48:15.042Z,20.70
2018-03-18T01:49:15.063Z,18.50
2018-03-18T01:50:15.024Z,19.60
2018-03-18T01:51:15.030Z,18.50
2018-03-18T01:52:15.004Z,18.30
2018-03-18T01:53:15.006Z,17.70
2018-03-18T01:54:15.034Z,19.80
2018-03-18T01:55:14.983Z,19.70
2018-03-18T01:56:14.960Z,18.40
2018-03-18T01:57:14.963Z,18.70
2018-03-18T01:58:14.939Z,19.60
2018-03-18T01:59:14.927Z,17.70
2018-03-18T02:00:15.129Z,20.40
2018-03-18T02:01:15.140Z,19.60
2018-03-18T02:02:15.135Z,18.00
2018-03-18T02:03:14.922Z,18.80
2018-03-18T02:04:14.888Z,18.90
2018-03-18T02:05:15.069Z,17.50
2018-03-18T02:06:14.873Z,19.30
2018-03-18T02:07:14.846Z,17.90
2018-03-18T02:08:14.869Z,18.20
2018-03-18T02:09:15.040Z,18.70
2018-03-18T02:10:14.826Z,17.60
2018-03-18T02:11:14.805Z,16.90
2018-03-18T02:12:14.792Z,19.70
2018-03-18T02:13:14.847Z,17.70
2018-03-18T02:14:14.771Z,17.70
2018-03-18T02:15:14.970Z,17.70
2018-03-18T02:16:14.760Z,17.40
2018-03-18T02:17:14.943Z,18.40
2018-03-18T02:18:14.755Z,18.50
2018-03-18T02:19:14.721Z,18.00
2018-03-18T02:20:14.706Z,19.30
2018-03-18T02:21:14.697Z,19.20
2018-03-18T02:22:14.699Z,18.10
2018-03-18T02:23:14.715Z,17.70
2018-03-18T02:24:14.878Z,18.00
2018-03-18T02:25:14.733Z,18.40
2018-03-18T02:26:14.662Z,17.70
2018-03-18T02:27:14.862Z,17.70
2018-03-18T02:28:14.621Z,16.70
2018-03-18T02:29:14.631Z,18.60
2018-03-18T02:30:14.806Z,17.10
2018-03-18T02:31:14.699Z,18.30
2018-03-18T02:32:14.596Z,17.50
2018-03-18T02:33:14.580Z,18.50
2018-03-18T02:34:14.602Z,17.80
2018-03-18T02:35:14.602Z,18.40
2018-03-18T02:36:14.538Z,18.30
2018-03-18T02:37:14.558Z,18.50
2018-03-18T02:38:14.532Z,17.40
2018-03-18T02:39:14.511Z,17.60
2018-03-18T02:40:14.520Z,16.90
2018-03-18T02:41:14.693Z,17.30
2018-03-18T02:42:14.473Z,16.50
2018-03-18T02:43:14.473Z,16.90
2018-03-18T02:44:14.662Z,18.10
2018-03-18T02:45:14.645Z,18.10
2018-03-18T02:46:14.435Z,17.30
2018-03-18T02:47:14.433Z,17.20
2018-03-18T02:48:14.423Z,17.30
2018-03-18T02:49:14.400Z,18.40
2018-03-18T02:50:14.399Z,17.20
2018-03-18T02:51:14.376Z,18.10
2018-03-18T02:52:14.400Z,18.60
2018-03-18T02:53:14.562Z,17.10
2018-03-18T02:54:14.384Z,16.90
2018-03-18T02:55:14.356Z,16.80
2018-03-18T02:56:14.337Z,15.90
2018-03-18T02:57:14.313Z,16.70
2018-03-18T02:58:14.305Z,17.40
2018-03-18T02:59:14.298Z,17.70
2018-03-18T03:00:14.295Z,18.40
2018-03-18T03:01:14.274Z,17.40
2018-03-18T03:02:14.261Z,17.10
2018-03-18T03:03:14.255Z,17.70
2018-03-18T03:04:14.247Z,16.90
2018-03-18T03:05:14.233Z,18.60
2018-03-18T03:06:14.236Z,18.00
2018-03-18T03:07:14.225Z,18.20
2018-03-18T03:08:14.200Z,16.10
2018-03-18T03:09:14.188Z,16.20
2018-03-18T03:10:14.191Z,16.60
2018-03-18T03:11:14.176Z,15.60
2018-03-18T03:12:14.164Z,17.20
2018-03-18T03:13:14.155Z,17.20
2018-03-18T03:14:14.348Z,17.10
2018-03-18T03:15:14.330Z,17.60
2018-03-18T03:16:14.328Z,17.20
2018-03-18T03:17:14.142Z,16.20
2018-03-18T03:18:14.136Z,16.50
2018-03-18T03:19:14.080Z,17.70
2018-03-18T03:20:14.272Z,16.90
2018-03-18T03:21:14.058Z,17.30
2018-03-18T03:22:14.060Z,16.00
2018-03-18T03:23:14.239Z,17.60
2018-03-18T03:24:14.027Z,17.30
2018-03-18T03:25:14.024Z,15.60
2018-03-18T03:26:14.049Z,17.30
2018-03-18T03:27:14.001Z,16.80
2018-03-18T03:28:13.983Z,16.20
2018-03-18T03:29:13.975Z,17.40
2018-03-18T03:30:13.968Z,17.90
2018-03-18T03:31:14.025Z,17.70
2018-03-18T03:32:13.952Z,18.70
2018-03-18T03:33:14.158Z,17.80
2018-03-18T03:34:13.958Z,16.80
2018-03-18T03:35:14.113Z,17.80
2018-03-18T03:36:14.098Z,18.00
2018-03-18T03:37:13.884Z,18.00
2018-03-18T03:38:13.893Z,18.30
2018-03-18T03:39:14.116Z,18.60
2018-03-18T03:40:13.869Z,17.30
2018-03-18T03:41:13.869Z,18.30
2018-03-18T03:42:13.902Z,18.80
2018-03-18T03:43:13.818Z,17.30
2018-03-18T03:44:13.821Z,18.30
2018-03-18T03:45:13.812Z,18.10
2018-03-18T03:46:13.787Z,18.40
2018-03-18T03:47:13.805Z,18.20
2018-03-18T03:48:13.792Z,16.90
2018-03-18T03:49:13.760Z,16.90
2018-03-18T03:50:13.750Z,18.50
2018-03-18T03:51:13.795Z,17.50
2018-03-18T03:52:13.733Z,16.90
2018-03-18T03:53:13.725Z,17.30
2018-03-18T03:54:13.714Z,17.70
2018-03-18T03:55:13.693Z,17.80
2018-03-18T03:56:13.722Z,16.90
2018-03-18T03:57:13.692Z,18.20
2018-03-18T03:58:13.704Z,17.30
2018-03-18T03:59:13.648Z,17.60
2018-03-18T04:00:13.638Z,17.90
2018-03-18T04:01:13.643Z,18.50
2018-03-18T04:02:13.625Z,19.10
2018-03-18T04:03:13.618Z,19.00
2018-03-18T04:04:13.621Z,17.10
2018-03-18T04:05:13.597Z,17.80
2018-03-18T04:06:13.575Z,17.10
2018-03-18T04:07:13.574Z,16.70
2018-03-18T04:08:13.767Z,16.60
2018-03-18T04:09:13.543Z,16.00
2018-03-18T04:10:13.545Z,17.20
2018-03-18T04:11:13.726Z,16.60
2018-03-18T04:12:13.524Z,18.30
2018-03-18T04:13:13.704Z,17.80
2018-03-18T04:14:13.560Z,17.30
2018-03-18T04:15:13.683Z,17.50
2018-03-18T04:16:13.468Z,17.60
2018-03-18T04:17:13.458Z,17.40
2018-03-18T04:18:13.462Z,16.70
2018-03-18T04:19:13.639Z,16.70
2018-03-18T04:20:13.425Z,16.80
2018-03-18T04:21:13.462Z,17.20
2018-03-18T04:22:13.421Z,16.00
2018-03-18T04:23:13.607Z,16.70
2018-03-18T04:24:13.400Z,16.60
2018-03-18T04:25:13.590Z,16.10
2018-03-18T04:26:13.372Z,16.10
2018-03-18T04:27:13.363Z,16.50
2018-03-18T04:28:13.341Z,15.20
2018-03-18T04:29:13.335Z,17.00
2018-03-18T04:30:13.335Z,15.80
2018-03-18T04:31:13.307Z,16.20
2018-03-18T04:32:13.318Z,16.20
2018-03-18T04:33:13.298Z,17.40
2018-03-18T04:34:13.316Z,17.20
2018-03-18T04:35:13.264Z,16.90
2018-03-18T04:36:13.277Z,15.30
2018-03-18T04:37:13.362Z,17.20
2018-03-18T04:38:13.238Z,17.50
2018-03-18T04:39:13.235Z,16.40
2018-03-18T04:40:13.237Z,16.60
2018-03-18T04:41:13.220Z,16.80
2018-03-18T04:42:13.191Z,16.20
2018-03-18T04:43:13.314Z,15.70
2018-03-18T04:44:13.396Z,15.50
2018-03-18T04:45:13.174Z,15.40
2018-03-18T04:46:13.186Z,15.40
2018-03-18T04:47:13.158Z,16.20
2018-03-18T04:48:13.128Z,15.60
2018-03-18T04:49:13.112Z,16.00
2018-03-18T04:50:13.104Z,15.80
2018-03-18T04:51:13.316Z,17.20
2018-03-18T04:52:13.102Z,16.30
2018-03-18T04:53:13.284Z,17.10
2018-03-18T04:54:13.058Z,16.90
2018-03-18T04:55:13.051Z,17.00
2018-03-18T04:56:13.060Z,17.00
2018-03-18T04:57:13.033Z,17.10
2018-03-18T04:58:13.219Z,16.50
2018-03-18T04:59:13.079Z,17.70
2018-03-18T05:00:13.257Z,16.30
2018-03-18T05:01:12.996Z,16.70
2018-03-18T05:02:12.984Z,17.70
2018-03-18T05:03:13.174Z,16.10
2018-03-18T05:04:13.161Z,16.50
2018-03-18T05:05:12.942Z,17.10
2018-03-18T05:06:13.139Z,16.90
2018-03-18T05:07:12.921Z,16.50
2018-03-18T05:08:12.908Z,16.60
2018-03-18T05:09:12.896Z,15.50
2018-03-18T05:10:12.882Z,16.10
2018-03-18T05:11:12.886Z,16.20
2018-03-18T05:12:12.871Z,16.20
2018-03-18T05:13:12.854Z,16.50
2018-03-18T05:14:12.840Z,16.80
2018-03-18T05:15:12.830Z,16.10
2018-03-18T05:16:12.820Z,16.10
2018-03-18T05:17:12.809Z,16.80
2018-03-18T05:18:13.000Z,16.80
2018-03-18T05:19:12.796Z,16.70
2018-03-18T05:20:12.785Z,16.70
2018-03-18T05:21:12.770Z,16.50
2018-03-18T05:22:12.754Z,17.70
2018-03-18T05:23:12.752Z,16.90
2018-03-18T05:24:12.734Z,19.20
2018-03-18T05:25:12.934Z,16.80
2018-03-18T05:26:12.722Z,16.40
2018-03-18T05:27:12.699Z,17.40
2018-03-18T05:28:12.702Z,16.20
2018-03-18T05:29:12.693Z,17.40
2018-03-18T05:30:12.882Z,17.60
2018-03-18T05:31:12.686Z,17.70
2018-03-18T05:32:12.649Z,16.80
2018-03-18T05:33:12.636Z,17.20
2018-03-18T05:34:12.627Z,16.90
2018-03-18T05:35:12.817Z,18.00
2018-03-18T05:36:12.819Z,16.70
2018-03-18T05:37:12.797Z,16.60
2018-03-18T05:38:12.594Z,16.80
2018-03-18T05:39:12.572Z,16.40
2018-03-18T05:40:12.767Z,16.60
2018-03-18T05:41:12.563Z,17.00
2018-03-18T05:42:12.562Z,16.60
2018-03-18T05:43:12.541Z,17.10
2018-03-18T05:44:12.514Z,17.80
2018-03-18T05:45:12.720Z,17.60
2018-03-18T05:46:12.520Z,17.30
2018-03-18T05:47:12.487Z,16.30
2018-03-18T05:48:12.488Z,16.00
2018-03-18T05:49:12.474Z,15.80
2018-03-18T05:50:12.452Z,16.90
2018-03-18T05:51:12.463Z,17.10
2018-03-18T05:52:12.446Z,15.60
2018-03-18T05:53:12.440Z,17.30
2018-03-18T05:54:12.441Z,16.30
2018-03-18T05:55:12.630Z,17.00
2018-03-18T05:56:12.405Z,16.70
2018-03-18T05:57:12.396Z,18.60
2018-03-18T05:58:12.370Z,16.60
2018-03-18T05:59:12.386Z,16.40
2018-03-18T06:00:12.347Z,16.40
2018-03-18T06:01:12.375Z,16.20
2018-03-18T06:02:12.542Z,16.30
2018-03-18T06:03:12.581Z,16.20
2018-03-18T06:04:12.311Z,17.70
2018-03-18T06:05:12.498Z,16.70
2018-03-18T06:06:12.605Z,16.10
2018-03-18T06:07:12.274Z,15.80
2018-03-18T06:08:12.265Z,16.30
2018-03-18T06:09:12.267Z,16.40
2018-03-18T06:10:12.451Z,17.00
2018-03-18T06:11:12.436Z,15.80
2018-03-18T06:12:12.249Z,16.40
2018-03-18T06:13:12.231Z,18.50
2018-03-18T06:14:12.420Z,16.50
2018-03-18T06:15:12.209Z,17.50
2018-03-18T06:16:12.178Z,16.50
2018-03-18T06:17:12.182Z,16.50
2018-03-18T06:18:12.364Z,15.50
2018-03-18T06:19:12.147Z,16.40
2018-03-18T06:20:12.140Z,17.10
2018-03-18T06:21:12.131Z,16.40
2018-03-18T06:22:12.139Z,15.90
2018-03-18T06:23:12.108Z,16.70
2018-03-18T06:24:12.102Z,17.30
2018-03-18T06:25:12.300Z,16.50
2018-03-18T06:26:12.074Z,16.60
2018-03-18T06:27:12.063Z,16.50
2018-03-18T06:28:12.054Z,17.10
2018-03-18T06:29:12.040Z,19.90
2018-03-18T06:30:12.057Z,16.40
2018-03-18T06:31:12.031Z,17.10
2018-03-18T06:32:12.011Z,15.90
2018-03-18T06:33:12.023Z,15.90
2018-03-18T06:34:11.998Z,16.70
2018-03-18T06:35:11.973Z,17.60
2018-03-18T06:36:11.979Z,17.50
2018-03-18T06:37:11.960Z,16.40
2018-03-18T06:38:11.942Z,18.40
2018-03-18T06:39:12.152Z,16.20
2018-03-18T06:40:12.128Z,16.80
2018-03-18T06:41:11.929Z,16.90
2018-03-18T06:42:11.903Z,16.50
2018-03-18T06:43:11.904Z,17.10
2018-03-18T06:44:12.100Z,15.70
2018-03-18T06:45:11.887Z,16.10
2018-03-18T06:46:11.873Z,17.30
2018-03-18T06:47:11.861Z,15.40
2018-03-18T06:48:11.841Z,15.80
2018-03-18T06:49:12.197Z,18.70
2018-03-18T06:50:11.818Z,15.60
2018-03-18T06:51:11.842Z,16.40
2018-03-18T06:52:11.796Z,16.10
2018-03-18T06:53:11.796Z,16.30
2018-03-18T06:54:11.784Z,15.20
2018-03-18T06:55:11.862Z,15.70
2018-03-18T06:56:11.752Z,16.10
2018-03-18T06:57:11.748Z,16.20
2018-03-18T06:58:11.958Z,18.80
2018-03-18T06:59:12.005Z,15.40
2018-03-18T07:00:11.711Z,17.10
2018-03-18T07:01:11.702Z,15.90
2018-03-18T07:02:11.690Z,15.80
2018-03-18T07:03:11.882Z,22.30
2018-03-18T07:04:11.686Z,17.30
2018-03-18T07:05:11.682Z,17.60
2018-03-18T07:06:11.661Z,16.20
2018-03-18T07:07:11.650Z,15.70
2018-03-18T07:08:11.868Z,16.20
2018-03-18T07:09:11.642Z,16.10
2018-03-18T07:10:11.809Z,15.30
2018-03-18T07:11:11.608Z,17.60
2018-03-18T07:12:11.798Z,16.60
2018-03-18T07:13:11.620Z,15.50
2018-03-18T07:14:11.572Z,15.90
2018-03-18T07:15:11.551Z,15.50
2018-03-18T07:16:11.539Z,17.50
2018-03-18T07:17:11.546Z,15.30
2018-03-18T07:18:11.532Z,15.20
2018-03-18T07:19:11.531Z,17.40
2018-03-18T07:20:11.499Z,16.60
2018-03-18T07:21:11.516Z,16.10
2018-03-18T07:22:11.480Z,17.50
2018-03-18T07:23:11.492Z,16.60
2018-03-18T07:24:11.458Z,16.00
2018-03-18T07:25:11.459Z,19.80
2018-03-18T07:26:11.456Z,16.90
2018-03-18T07:27:11.442Z,16.20
2018-03-18T07:28:11.415Z,15.10
2018-03-18T07:29:11.409Z,16.10
2018-03-18T07:30:11.415Z,16.10
2018-03-18T07:31:11.398Z,17.80
2018-03-18T07:32:11.386Z,16.80
2018-03-18T07:33:11.434Z,18.80
2018-03-18T07:34:11.566Z,15.70
2018-03-18T07:35:11.342Z,15.60
2018-03-18T07:36:11.348Z,17.90
2018-03-18T07:37:11.395Z,17.00
2018-03-18T07:38:11.371Z,16.30
2018-03-18T07:39:11.353Z,16.10
2018-03-18T07:40:11.300Z,15.80
2018-03-18T07:41:11.291Z,15.80
2018-03-18T07:42:11.278Z,16.60
2018-03-18T07:43:11.463Z,16.30
2018-03-18T07:44:11.458Z,15.10
2018-03-18T07:45:11.234Z,15.60
2018-03-18T07:46:11.223Z,18.00
2018-03-18T07:47:11.430Z,15.70
2018-03-18T07:48:11.205Z,15.30
2018-03-18T07:49:11.198Z,17.40
2018-03-18T07:50:11.195Z,17.80
2018-03-18T07:51:11.186Z,15.10
2018-03-18T07:52:11.165Z,15.60
2018-03-18T07:53:11.153Z,16.80
2018-03-18T07:54:11.151Z,16.10
2018-03-18T07:55:11.139Z,18.30
2018-03-18T07:56:11.125Z,17.40
2018-03-18T07:57:11.123Z,17.40
2018-03-18T07:58:11.115Z,15.40
2018-03-18T07:59:11.099Z,15.60
2018-03-18T08:00:11.080Z,16.30
2018-03-18T08:01:11.073Z,15.60
2018-03-18T08:02:11.058Z,17.20
2018-03-18T08:03:11.057Z,16.90
2018-03-18T08:04:11.038Z,16.50
2018-03-18T08:05:11.047Z,16.20
2018-03-18T08:06:11.053Z,16.70
2018-03-18T08:07:11.014Z,17.10
2018-03-18T08:08:10.996Z,15.40
2018-03-18T08:09:10.995Z,15.90
2018-03-18T08:10:10.983Z,15.60
2018-03-18T08:11:10.967Z,17.30
2018-03-18T08:12:10.984Z,15.30
2018-03-18T08:13:10.940Z,15.20
2018-03-18T08:14:10.967Z,16.70
2018-03-18T08:15:10.961Z,15.80
2018-03-18T08:16:10.932Z,15.50
2018-03-18T08:17:10.924Z,15.70
2018-03-18T08:18:10.935Z,18.60
2018-03-18T08:19:10.909Z,17.60
2018-03-18T08:20:10.873Z,15.20
2018-03-18T08:21:10.869Z,19.00
2018-03-18T08:22:10.879Z,18.30
2018-03-18T08:23:10.863Z,15.20
2018-03-18T08:24:10.903Z,14.30
2018-03-18T08:25:10.840Z,15.20
2018-03-18T08:26:10.807Z,16.50
2018-03-18T08:27:10.795Z,15.80
2018-03-18T08:28:10.783Z,15.80
2018-03-18T08:29:10.773Z,16.70
2018-03-18T08:30:10.767Z,18.00
2018-03-18T08:31:10.770Z,14.70
2018-03-18T08:32:10.760Z,15.40
2018-03-18T08:33:10.727Z,15.40
2018-03-18T08:34:10.740Z,15.20
2018-03-18T08:35:10.709Z,14.30
2018-03-18T08:36:10.699Z,15.50
2018-03-18T08:37:10.701Z,14.90
2018-03-18T08:38:10.891Z,15.60
2018-03-18T08:39:10.667Z,15.60
2018-03-18T08:40:10.658Z,17.30
2018-03-18T08:41:10.645Z,16.70
2018-03-18T08:42:10.634Z,16.90
2018-03-18T08:43:10.636Z,15.80
2018-03-18T08:44:10.635Z,16.40
2018-03-18T08:45:10.615Z,16.70
2018-03-18T08:46:10.602Z,17.80
2018-03-18T08:47:10.578Z,16.90
2018-03-18T08:48:10.576Z,18.80
2018-03-18T08:49:10.765Z,16.10
2018-03-18T08:50:10.547Z,16.00
2018-03-18T08:51:10.548Z,18.60
2018-03-18T08:52:10.537Z,16.00
2018-03-18T08:53:10.569Z,17.40
2018-03-18T08:54:10.512Z,16.30
2018-03-18T08:55:10.490Z,18.90
2018-03-18T08:56:10.495Z,15.30
2018-03-18T08:57:10.479Z,16.70
2018-03-18T08:58:10.677Z,15.20
2018-03-18T08:59:10.654Z,16.90
2018-03-18T09:00:10.439Z,17.50
2018-03-18T09:01:10.443Z,15.10
2018-03-18T09:02:10.421Z,18.40
2018-03-18T09:03:10.637Z,17.70
2018-03-18T09:04:10.399Z,18.10
2018-03-18T09:05:10.388Z,15.90
2018-03-18T09:06:10.376Z,18.70
2018-03-18T09:07:10.372Z,15.30
2018-03-18T09:08:10.381Z,15.80
2018-03-18T09:09:10.383Z,14.70
2018-03-18T09:10:10.574Z,14.70
2018-03-18T09:11:10.398Z,16.00
2018-03-18T09:12:10.315Z,15.50
2018-03-18T09:13:10.315Z,15.30
2018-03-18T09:14:10.320Z,17.70
2018-03-18T09:15:10.279Z,15.20
2018-03-18T09:16:10.282Z,14.80
2018-03-18T09:17:10.262Z,15.10
2018-03-18T09:18:10.263Z,17.60
2018-03-18T09:19:10.258Z,14.30
2018-03-18T09:20:10.245Z,17.10
2018-03-18T09:21:10.227Z,14.00
2018-03-18T09:22:10.243Z,14.80
2018-03-18T09:23:10.236Z,15.70
2018-03-18T09:24:10.216Z,14.60
2018-03-18T09:25:10.188Z,15.40
2018-03-18T09:26:10.184Z,13.60
2018-03-18T09:27:10.198Z,14.20
2018-03-18T09:28:10.163Z,15.80
2018-03-18T09:29:10.131Z,14.80
2018-03-18T09:30:10.128Z,12.80
2018-03-18T09:31:10.122Z,16.80
2018-03-18T09:32:10.131Z,15.60
2018-03-18T09:33:10.105Z,16.50
2018-03-18T09:34:10.282Z,15.70
2018-03-18T09:35:10.113Z,15.60
2018-03-18T09:36:10.073Z,13.50
2018-03-18T09:37:10.256Z,18.40
2018-03-18T09:38:10.265Z,13.80
2018-03-18T09:39:10.030Z,14.80
2018-03-18T09:40:10.033Z,13.90
2018-03-18T09:41:10.034Z,13.40
2018-03-18T09:42:10.012Z,16.10
2018-03-18T09:43:09.989Z,15.70
2018-03-18T09:44:09.995Z,13.00
2018-03-18T09:45:09.988Z,15.70
2018-03-18T09:46:09.955Z,15.60
2018-03-18T09:47:09.961Z,12.90
2018-03-18T09:48:09.951Z,14.70
2018-03-18T09:49:10.138Z,15.60
2018-03-18T09:50:10.128Z,13.30
2018-03-18T09:51:09.929Z,13.30
2018-03-18T09:52:09.895Z,13.50
2018-03-18T09:53:09.899Z,12.30
2018-03-18T09:54:09.887Z,13.80
2018-03-18T09:55:09.877Z,15.50
2018-03-18T09:56:09.865Z,13.90
2018-03-18T09:57:09.868Z,14.20
2018-03-18T09:58:09.842Z,14.90
2018-03-18T09:59:09.839Z,14.10
2018-03-18T10:00:09.876Z,13.70
2018-03-18T10:01:09.808Z,12.60
2018-03-18T10:02:09.834Z,13.20
2018-03-18T10:03:09.798Z,14.20
2018-03-18T10:04:09.775Z,12.50
2018-03-18T10:05:09.778Z,12.10
2018-03-18T10:06:09.764Z,13.40
2018-03-18T10:07:09.778Z,16.20
2018-03-18T10:08:09.770Z,12.80
2018-03-18T10:09:09.946Z,15.40
2018-03-18T10:10:09.720Z,15.10
2018-03-18T10:11:09.766Z,12.80
2018-03-18T10:12:09.899Z,13.40
2018-03-18T10:13:09.717Z,13.40
2018-03-18T10:14:09.675Z,12.30
2018-03-18T10:15:09.676Z,13.40
2018-03-18T10:16:09.671Z,13.10
2018-03-18T10:17:09.649Z,12.50
2018-03-18T10:18:09.718Z,12.20
2018-03-18T10:19:09.645Z,14.70
2018-03-18T10:20:09.863Z,12.60
2018-03-18T10:21:09.625Z,11.60
2018-03-18T10:22:09.619Z,13.00
2018-03-18T10:23:09.625Z,13.00
2018-03-18T10:24:09.615Z,12.40
2018-03-18T10:25:09.569Z,14.40
2018-03-18T10:26:09.562Z,12.50
2018-03-18T10:27:09.548Z,12.50
2018-03-18T10:28:09.780Z,12.10
2018-03-18T10:29:09.537Z,14.20
2018-03-18T10:30:09.747Z,12.50
2018-03-18T10:31:09.556Z,13.70
2018-03-18T10:32:09.712Z,11.90
2018-03-18T10:33:09.494Z,15.30
2018-03-18T10:34:09.484Z,12.10
2018-03-18T10:35:09.467Z,13.00
2018-03-18T10:36:09.471Z,14.50
2018-03-18T10:37:09.463Z,14.20
2018-03-18T10:38:09.435Z,13.10
2018-03-18T10:39:09.436Z,15.30
2018-03-18T10:40:09.441Z,12.50
2018-03-18T10:41:09.443Z,12.60
2018-03-18T10:42:09.408Z,14.10
2018-03-18T10:43:09.390Z,11.20
2018-03-18T10:44:09.385Z,11.40
2018-03-18T10:45:09.376Z,11.70
2018-03-18T10:46:09.369Z,13.00
2018-03-18T10:47:09.390Z,12.50
2018-03-18T10:48:09.340Z,11.40
2018-03-18T10:49:09.341Z,14.90
2018-03-18T10:50:09.337Z,14.70
2018-03-18T10:51:09.332Z,13.30
2018-03-18T10:52:09.300Z,14.30
2018-03-18T10:53:09.293Z,11.30
2018-03-18T10:54:09.284Z,13.20
2018-03-18T10:55:09.277Z,13.30
2018-03-18T10:56:09.272Z,13.70
2018-03-18T10:57:09.268Z,13.10
2018-03-18T10:58:09.257Z,11.70
2018-03-18T10:59:09.259Z,14.60
2018-03-18T11:00:09.276Z,10.50
2018-03-18T11:01:09.219Z,11.50
2018-03-18T11:02:09.200Z,11.40
2018-03-18T11:03:09.199Z,12.50
2018-03-18T11:04:09.211Z,12.50
2018-03-18T11:05:09.407Z,12.50
2018-03-18T11:06:09.175Z,10.40
2018-03-18T11:07:09.164Z,12.10
2018-03-18T11:08:09.158Z,11.40
2018-03-18T11:09:09.140Z,10.70
2018-03-18T11:10:09.323Z,12.00
2018-03-18T11:11:09.119Z,10.60
2018-03-18T11:12:09.121Z,12.60
2018-03-18T11:13:09.100Z,10.70
2018-03-18T11:14:09.082Z,12.00
2018-03-18T11:15:09.085Z,12.70
2018-03-18T11:16:09.098Z,10.50
2018-03-18T11:17:09.068Z,10.40
2018-03-18T11:18:09.054Z,12.80
2018-03-18T11:19:09.058Z,14.10
2018-03-18T11:20:09.031Z,12.00
2018-03-18T11:21:09.019Z,11.30
2018-03-18T11:22:09.072Z,11.00
2018-03-18T11:23:08.994Z,12.50
2018-03-18T11:24:09.185Z,10.80
2018-03-18T11:25:08.971Z,11.10
2018-03-18T11:26:08.961Z,10.70
2018-03-18T11:27:08.950Z,10.80
2018-03-18T11:28:08.941Z,13.40
2018-03-18T11:29:08.937Z,10.70
2018-03-18T11:30:08.955Z,10.90
2018-03-18T11:31:08.971Z,14.10
2018-03-18T11:32:08.918Z,14.50
2018-03-18T11:33:09.123Z,13.90
2018-03-18T11:34:08.898Z,10.40
2018-03-18T11:35:08.878Z,10.30
2018-03-18T11:36:08.864Z,11.80
2018-03-18T11:37:08.878Z,10.60
2018-03-18T11:38:08.845Z,11.70
2018-03-18T11:39:09.079Z,13.00
2018-03-18T11:40:08.827Z,11.10
2018-03-18T11:41:08.829Z,10.70
2018-03-18T11:42:08.829Z,11.80
2018-03-18T11:43:08.826Z,10.50
2018-03-18T11:44:08.806Z,11.70
2018-03-18T11:45:08.805Z,11.50
2018-03-18T11:46:08.996Z,10.80
2018-03-18T11:47:08.795Z,10.30
2018-03-18T11:48:08.772Z,11.80
2018-03-18T11:49:08.946Z,11.10
2018-03-18T11:50:08.735Z,11.40
2018-03-18T11:51:08.720Z,13.20
2018-03-18T11:52:08.719Z,10.20
2018-03-18T11:53:08.715Z,11.50
2018-03-18T11:54:08.707Z,11.60
2018-03-18T11:55:08.683Z,10.60
2018-03-18T11:56:08.688Z,10.70
2018-03-18T11:57:08.666Z,10.10
2018-03-18T11:58:08.871Z,10.40
2018-03-18T11:59:08.673Z,10.30
2018-03-18T12:00:08.642Z,11.20
2018-03-18T12:01:08.898Z,11.30
2018-03-18T12:02:08.649Z,9.50
2018-03-18T12:03:08.636Z,9.60
2018-03-18T12:04:08.635Z,10.10
2018-03-18T12:05:08.607Z,10.50
2018-03-18T12:06:08.604Z,10.60
2018-03-18T12:07:08.599Z,11.30
2018-03-18T12:08:08.575Z,12.70
2018-03-18T12:09:08.781Z,10.80
2018-03-18T12:10:08.542Z,12.00
2018-03-18T12:11:08.546Z,9.60
2018-03-18T12:12:08.548Z,9.60
2018-03-18T12:13:08.529Z,9.80
2018-03-18T12:14:08.528Z,10.10
2018-03-18T12:15:08.735Z,12.70
2018-03-18T12:16:08.488Z,9.50
2018-03-18T12:17:08.682Z,11.50
2018-03-18T12:18:08.512Z,12.40
2018-03-18T12:19:08.544Z,9.50
2018-03-18T12:20:08.680Z,10.80
2018-03-18T12:21:08.443Z,11.20
2018-03-18T12:22:08.653Z,9.20
2018-03-18T12:23:08.425Z,12.00
2018-03-18T12:24:08.425Z,10.20
2018-03-18T12:25:08.448Z,12.00
2018-03-18T12:26:08.464Z,11.30
2018-03-18T12:27:08.396Z,11.00
2018-03-18T12:28:08.407Z,9.10
2018-03-18T12:29:08.369Z,9.30
2018-03-18T12:30:08.580Z,9.50
2018-03-18T12:31:08.366Z,9.50
2018-03-18T12:32:08.370Z,10.30
2018-03-18T12:33:08.367Z,9.90
2018-03-18T12:34:08.349Z,9.80
2018-03-18T12:35:08.327Z,9.40
2018-03-18T12:36:08.318Z,10.20
2018-03-18T12:37:08.308Z,9.60
2018-03-18T12:38:08.303Z,11.90
2018-03-18T12:39:08.300Z,10.50
2018-03-18T12:40:08.285Z,9.20
2018-03-18T12:41:08.274Z,9.10
2018-03-18T12:42:08.469Z,10.70
2018-03-18T12:43:08.475Z,9.40
2018-03-18T12:44:08.251Z,9.60
2018-03-18T12:45:08.242Z,9.70
2018-03-18T12:46:08.246Z,9.60
2018-03-18T12:47:08.208Z,9.30
2018-03-18T12:48:08.211Z,9.50
2018-03-18T12:49:08.203Z,10.00
2018-03-18T12:50:08.181Z,9.40
2018-03-18T12:51:08.396Z,12.10
2018-03-18T12:52:08.185Z,9.70
2018-03-18T12:53:08.153Z,11.20